Time;durP1;ratioP1;P1;durP2;ratioP2;P2;SDS_P1;SDS_P2;PMS_P1;PMS_P2;Temp;Humidity;BMP_temperature;BMP_pressure;BME280_temperature;BME280_humidity;BME280_pressure;Samples;Min_cycle;Max_cycle;Signal;HPM_P1;HPM_P2
2023/01/25 00:00:05;;;;;;;24.35;9.48;;;6.50;52.50;;;;;;6300458;28;20926;-70
2023/01/25 00:03:06;;;;;;;22.83;9.88;;;6.50;52.50;;;;;;6300872;28;20032;-70
2023/01/25 00:06:07;;;;;;;26.67;9.50;;;6.50;52.50;;;;;;6300634;28;20507;-69
2023/01/25 00:09:09;;;;;;;18.75;8.93;;;6.50;52.50;;;;;;6300399;28;20067;-70
2023/01/25 00:12:10;;;;;;;26.05;9.75;;;6.50;52.50;;;;;;6300436;28;20039;-69
2023/01/25 00:15:11;;;;;;;22.95;9.50;;;6.50;52.50;;;;;;6299272;28;20039;-69
2023/01/25 00:18:12;;;;;;;27.52;10.27;;;6.50;52.50;;;;;;6300609;28;20429;-69
2023/01/25 00:21:21;;;;;;;19.95;9.48;;;6.50;52.50;;;;;;6300818;28;20068;-68
2023/01/25 00:24:23;;;;;;;21.65;9.55;;;6.50;52.60;;;;;;6304758;28;20082;-68
2023/01/25 00:27:23;;;;;;;20.27;9.25;;;6.50;52.60;;;;;;6305022;28;20029;-68
2023/01/25 00:30:24;;;;;;;27.60;11.57;;;6.50;52.70;;;;;;6300288;28;20055;-70
2023/01/25 00:33:55;;;;;;;26.83;10.18;;;6.40;52.70;;;;;;6300321;28;20590;-68
2023/01/25 00:37:01;;;;;;;25.02;9.63;;;6.50;52.80;;;;;;6298931;28;20039;-69
2023/01/25 00:40:03;;;;;;;26.20;9.40;;;6.40;52.90;;;;;;6299521;28;20036;-68
2023/01/25 00:43:04;;;;;;;27.52;10.25;;;6.40;53.00;;;;;;6299939;28;20031;-69
2023/01/25 00:46:05;;;;;;;23.95;11.00;;;6.40;53.00;;;;;;6298613;28;20039;-68
2023/01/25 00:49:15;;;;;;;23.65;10.50;;;6.40;53.10;;;;;;6301267;28;20029;-69
2023/01/25 00:52:17;;;;;;;23.55;10.07;;;6.40;53.20;;;;;;6299919;28;20024;-67
2023/01/25 00:55:17;;;;;;;16.38;8.57;;;6.40;53.20;;;;;;6297806;28;20028;-68
2023/01/25 00:58:18;;;;;;;21.35;9.13;;;6.50;53.20;;;;;;6298764;28;20036;-67
2023/01/25 01:01:19;;;;;;;20.02;9.68;;;6.50;53.30;;;;;;6298137;28;20064;-71
2023/01/25 01:04:24;;;;;;;20.60;9.27;;;6.50;53.30;;;;;;6297756;28;20025;-70
2023/01/25 01:07:26;;;;;;;17.30;8.65;;;6.50;53.30;;;;;;6299336;28;20031;-69
2023/01/25 01:10:28;;;;;;;26.05;10.00;;;6.50;53.30;;;;;;6299415;28;20487;-69
2023/01/25 01:13:29;;;;;;;24.50;9.90;;;6.50;53.40;;;;;;6299379;28;20036;-69
2023/01/25 01:16:31;;;;;;;19.85;9.23;;;6.40;53.50;;;;;;6297867;28;20091;-69
2023/01/25 01:19:32;;;;;;;28.17;10.77;;;6.40;53.70;;;;;;6297568;28;20036;-69
2023/01/25 01:22:33;;;;;;;32.58;10.50;;;6.30;53.70;;;;;;6300383;28;20035;-69
2023/01/25 01:25:33;;;;;;;26.50;10.73;;;6.40;53.70;;;;;;6322798;28;20024;-69
2023/01/25 01:28:38;;;;;;;24.48;11.23;;;6.40;53.70;;;;;;6323886;28;20387;-68
2023/01/25 01:31:39;;;;;;;23.05;11.00;;;6.20;53.50;;;;;;6289982;28;20032;-68
2023/01/25 01:34:49;;;;;;;25.42;9.77;;;6.40;53.60;;;;;;6322721;28;20028;-68
2023/01/25 01:37:49;;;;;;;22.40;9.75;;;6.40;53.70;;;;;;6322249;28;20039;-67
2023/01/25 01:40:50;;;;;;;37.33;10.80;;;6.40;53.70;;;;;;6322296;28;20043;-70
2023/01/25 01:43:52;;;;;;;23.65;8.73;;;6.40;53.70;;;;;;6305683;28;20053;-70
2023/01/25 01:46:56;;;;;;;27.25;10.52;;;6.40;53.60;;;;;;6323603;28;20024;-68
2023/01/25 01:50:05;;;;;;;22.38;10.40;;;6.40;53.50;;;;;;6321813;28;20039;-68
2023/01/25 01:53:08;;;;;;;27.67;10.10;;;6.50;53.50;;;;;;6323343;28;20024;-68
2023/01/25 01:56:13;;;;;;;24.17;9.30;;;6.40;53.40;;;;;;6321963;28;20040;-68
2023/01/25 01:59:15;;;;;;;31.67;11.02;;;6.50;53.40;;;;;;6321488;28;20494;-69
2023/01/25 02:02:16;;;;;;;19.70;9.63;;;6.50;53.40;;;;;;6321755;28;20032;-70
2023/01/25 02:05:28;;;;;;;29.00;11.55;;;6.60;53.30;;;;;;6305851;28;20449;-68
2023/01/25 02:08:32;;;;;;;32.28;10.35;;;6.70;53.20;;;;;;6296015;28;20067;-68
2023/01/25 02:11:36;;;;;;;24.60;10.48;;;6.70;53.00;;;;;;6279969;28;20025;-69
2023/01/25 02:14:37;;;;;;;19.83;9.25;;;6.70;52.90;;;;;;6296357;28;20064;-68
2023/01/25 02:17:40;;;;;;;25.45;10.27;;;6.70;52.80;;;;;;6296340;28;20116;-69
2023/01/25 02:20:44;;;;;;;23.75;9.48;;;6.80;52.80;;;;;;6314663;28;20039;-68
2023/01/25 02:24:04;;;;;;;25.38;9.60;;;6.80;52.80;;;;;;6322098;28;20032;-70
2023/01/25 02:27:05;;;;;;;27.50;9.70;;;6.80;52.80;;;;;;6322595;28;20413;-69
2023/01/25 02:30:07;;;;;;;26.52;10.27;;;6.80;52.80;;;;;;6320936;28;20028;-70
2023/01/25 02:33:09;;;;;;;29.02;9.63;;;6.80;52.80;;;;;;6322436;28;20028;-67
2023/01/25 02:36:45;;;;;;;36.88;10.65;;;6.80;52.80;;;;;;6320955;28;20028;-69
2023/01/25 02:39:47;;;;;;;20.25;8.43;;;6.70;52.90;;;;;;6277317;28;20024;-69
2023/01/25 02:42:48;;;;;;;28.45;10.73;;;6.70;53.10;;;;;;6277918;28;20044;-69
2023/01/25 02:45:54;;;;;;;21.65;8.98;;;6.70;53.20;;;;;;6295590;28;20025;-68
2023/01/25 02:48:57;;;;;;;22.95;9.43;;;6.60;53.30;;;;;;6279956;28;20033;-68
2023/01/25 02:51:58;;;;;;;21.77;9.60;;;6.60;53.40;;;;;;6279052;28;20045;-68
2023/01/25 02:54:59;;;;;;;23.27;8.73;;;6.60;53.40;;;;;;6277807;28;20043;-68
2023/01/25 02:58:00;;;;;;;24.95;10.43;;;6.60;53.50;;;;;;6278178;28;20043;-68
2023/01/25 03:01:01;;;;;;;22.27;9.07;;;6.60;53.50;;;;;;6282137;28;20190;-67
2023/01/25 03:04:04;;;;;;;23.13;10.68;;;6.60;53.50;;;;;;6296339;28;20488;-68
2023/01/25 03:07:06;;;;;;;25.77;10.02;;;6.60;53.50;;;;;;6274081;28;20520;-68
2023/01/25 03:10:08;;;;;;;24.20;10.77;;;6.60;53.40;;;;;;6252254;28;20107;-68
2023/01/25 03:13:10;;;;;;;27.25;11.15;;;6.60;53.40;;;;;;6265538;28;20041;-67
2023/01/25 03:16:12;;;;;;;20.52;9.82;;;6.60;53.30;;;;;;6295370;28;20036;-67
2023/01/25 03:19:15;;;;;;;16.80;9.70;;;6.60;53.40;;;;;;6294056;28;20472;-67
2023/01/25 03:22:17;;;;;;;20.58;8.73;;;6.70;53.40;;;;;;6278600;28;20029;-67
2023/01/25 03:25:17;;;;;;;23.40;10.40;;;6.70;53.30;;;;;;6294870;28;20044;-69
2023/01/25 03:28:28;;;;;;;19.65;7.95;;;6.70;53.20;;;;;;6294856;28;20063;-68
2023/01/25 03:31:29;;;;;;;18.75;9.55;;;6.70;53.20;;;;;;6278417;28;20024;-69
2023/01/25 03:34:30;;;;;;;20.38;8.75;;;6.70;53.10;;;;;;6295501;28;20039;-69
2023/01/25 03:37:33;;;;;;;24.27;9.32;;;6.70;53.20;;;;;;6294456;28;20036;-67
2023/01/25 03:40:34;;;;;;;23.38;9.93;;;6.70;53.20;;;;;;6278324;28;20438;-68
2023/01/25 03:43:35;;;;;;;25.65;8.77;;;6.70;53.10;;;;;;6294864;28;20078;-67
2023/01/25 03:46:37;;;;;;;21.48;8.13;;;6.60;53.10;;;;;;6296306;28;20033;-68
2023/01/25 03:49:39;;;;;;;25.27;10.20;;;6.60;53.20;;;;;;6294391;28;20498;-68
2023/01/25 03:52:44;;;;;;;20.75;8.98;;;6.50;53.30;;;;;;6294901;28;20028;-68
2023/01/25 03:55:46;;;;;;;27.05;10.85;;;6.50;53.30;;;;;;6295520;28;20374;-69
2023/01/25 03:58:47;;;;;;;19.85;8.80;;;6.50;53.40;;;;;;6294423;28;20396;-69
2023/01/25 04:01:48;;;;;;;29.48;9.68;;;6.40;53.40;;;;;;6294584;28;20037;-70
2023/01/25 04:04:49;;;;;;;25.08;11.48;;;6.40;53.50;;;;;;6281348;28;20028;-68
2023/01/25 04:07:52;;;;;;;23.45;9.23;;;6.40;53.60;;;;;;6277892;28;20028;-68
2023/01/25 04:11:08;;;;;;;26.40;9.73;;;6.30;53.60;;;;;;6294735;28;20051;-69
2023/01/25 04:14:10;;;;;;;22.67;9.43;;;6.30;53.70;;;;;;6319609;28;20028;-70
2023/01/25 04:17:18;;;;;;;24.42;9.82;;;6.40;53.70;;;;;;6319195;28;20091;-68
2023/01/25 04:20:35;;;;;;;23.25;10.10;;;6.40;53.60;;;;;;6319605;28;20051;-68
2023/01/25 04:23:36;;;;;;;27.88;10.93;;;6.40;53.70;;;;;;6302521;28;20020;-69
2023/01/25 04:26:37;;;;;;;19.35;8.60;;;6.40;53.80;;;;;;6320897;28;20380;-68
2023/01/25 04:29:38;;;;;;;22.08;8.98;;;6.40;53.80;;;;;;6318983;28;20502;-68
2023/01/25 04:32:39;;;;;;;46.65;9.88;;;6.40;53.70;;;;;;6323983;28;20036;-68
2023/01/25 04:35:52;;;;;;;19.17;8.95;;;6.40;53.70;;;;;;6323831;28;20095;-67
2023/01/25 04:38:53;;;;;;;19.33;8.57;;;6.40;53.80;;;;;;6323432;28;20034;-68
2023/01/25 04:41:55;;;;;;;22.08;9.82;;;6.40;53.80;;;;;;6323580;28;20032;-69
2023/01/25 04:44:56;;;;;;;22.92;9.57;;;6.40;53.80;;;;;;6325197;28;20051;-69
2023/01/25 04:47:59;;;;;;;17.52;8.88;;;6.40;53.70;;;;;;6306362;28;20115;-70
2023/01/25 04:51:01;;;;;;;26.02;9.23;;;6.40;53.70;;;;;;6323537;28;20423;-67
2023/01/25 04:54:02;;;;;;;18.83;8.82;;;6.40;53.70;;;;;;6323609;28;20036;-67
2023/01/25 04:57:03;;;;;;;20.67;8.70;;;6.40;53.70;;;;;;6306614;28;20146;-69
2023/01/25 05:00:05;;;;;;;20.63;10.23;;;6.40;53.80;;;;;;6322985;28;20036;-69
2023/01/25 05:03:07;;;;;;;25.90;8.90;;;6.40;53.90;;;;;;6323597;28;20032;-69
2023/01/25 05:06:08;;;;;;;20.60;9.70;;;6.40;53.90;;;;;;6300865;28;20426;-70
2023/01/25 05:09:09;;;;;;;22.88;9.25;;;6.30;53.80;;;;;;6314066;28;20024;-69
2023/01/25 05:12:12;;;;;;;35.28;11.40;;;6.40;53.90;;;;;;6323235;28;20123;-68
2023/01/25 05:15:33;;;;;;;26.30;9.32;;;6.30;53.90;;;;;;6323277;28;20077;-69
2023/01/25 05:18:34;;;;;;;23.42;9.23;;;6.40;53.80;;;;;;6324072;28;20036;-67
2023/01/25 05:24:54;;;;;;;36.70;12.23;;;6.40;53.80;;;;;;6323023;28;20058;-68
2023/01/25 05:27:56;;;;;;;28.05;10.25;;;6.40;53.90;;;;;;6322435;28;20031;-67
2023/01/25 05:31:23;;;;;;;21.17;9.18;;;6.30;53.90;;;;;;6322054;28;20039;-68
2023/01/25 05:34:27;;;;;;;29.65;11.55;;;6.30;53.90;;;;;;6322881;28;20427;-69
2023/01/25 05:37:28;;;;;;;26.17;9.85;;;6.30;53.90;;;;;;6326640;28;20028;-66
2023/01/25 05:40:34;;;;;;;21.20;9.57;;;6.30;54.00;;;;;;6325216;28;20032;-66
2023/01/25 05:43:35;;;;;;;25.42;10.35;;;6.30;54.00;;;;;;6321885;28;20051;-67
2023/01/25 05:46:40;;;;;;;23.63;9.85;;;6.40;54.20;;;;;;6322544;28;20028;-70
2023/01/25 05:49:41;;;;;;;23.83;10.13;;;6.40;54.00;;;;;;6321740;28;20059;-68
2023/01/25 05:52:46;;;;;;;30.23;11.07;;;6.40;54.00;;;;;;6322239;28;20028;-68
2023/01/25 05:55:47;;;;;;;26.02;10.82;;;5.80;53.70;;;;;;6305035;28;20028;-71
2023/01/25 05:58:54;;;;;;;29.23;11.43;;;6.40;53.90;;;;;;6305312;28;20136;-70
2023/01/25 06:01:55;;;;;;;27.35;12.05;;;6.40;53.90;;;;;;6324306;28;20035;-67
2023/01/25 06:04:56;;;;;;;23.25;10.32;;;6.40;54.00;;;;;;6324245;28;20061;-67
2023/01/25 06:07:57;;;;;;;27.40;9.95;;;6.40;54.00;;;;;;6322727;28;20028;-70
2023/01/25 06:11:09;;;;;;;20.20;8.85;;;6.40;54.10;;;;;;6321816;28;20067;-69
2023/01/25 06:14:11;;;;;;;25.17;8.95;;;6.30;54.10;;;;;;6304924;28;20456;-69
2023/01/25 06:17:12;;;;;;;26.45;9.00;;;6.30;54.20;;;;;;6321553;28;20091;-69
2023/01/25 06:20:28;;;;;;;25.02;10.48;;;6.20;54.20;;;;;;6322731;28;20123;-70
2023/01/25 06:23:39;;;;;;;22.05;9.00;;;6.20;54.50;;;;;;6322571;28;20020;-68
2023/01/25 06:26:39;;;;;;;24.58;9.30;;;6.10;54.60;;;;;;6321183;28;20070;-69
2023/01/25 06:29:40;;;;;;;27.58;8.95;;;6.10;54.60;;;;;;6320743;28;20036;-67
2023/01/25 06:32:41;;;;;;;25.77;9.55;;;6.10;54.70;;;;;;6322036;28;20447;-70
2023/01/25 06:35:42;;;;;;;24.52;9.73;;;6.10;54.80;;;;;;6320543;28;20040;-70
2023/01/25 06:38:46;;;;;;;21.48;9.88;;;6.10;54.80;;;;;;6321547;28;20028;-67
2023/01/25 06:41:47;;;;;;;21.02;8.98;;;6.10;54.80;;;;;;6320372;28;20036;-69
2023/01/25 06:44:48;;;;;;;23.48;10.38;;;6.10;54.80;;;;;;6320637;28;20082;-68
2023/01/25 06:47:50;;;;;;;29.08;11.10;;;6.20;54.80;;;;;;6320352;28;20028;-70
2023/01/25 06:50:56;;;;;;;23.80;10.32;;;6.20;54.70;;;;;;6321813;28;20365;-72
2023/01/25 06:54:02;;;;;;;21.42;10.27;;;6.10;54.70;;;;;;6320782;28;20096;-68
2023/01/25 06:57:03;;;;;;;25.35;9.75;;;6.20;54.80;;;;;;6321691;28;20065;-69
2023/01/25 07:00:05;;;;;;;33.28;12.02;;;6.20;54.80;;;;;;6321214;28;20503;-72
2023/01/25 07:03:05;;;;;;;25.90;10.05;;;6.20;54.80;;;;;;6321381;28;20028;-66
2023/01/25 07:06:08;;;;;;;24.67;11.07;;;6.20;54.80;;;;;;6299499;28;20412;-69
2023/01/25 07:09:12;;;;;;;32.20;10.95;;;6.20;54.80;;;;;;6295336;28;20056;-68
2023/01/25 07:12:13;;;;;;;30.60;11.18;;;6.20;54.90;;;;;;6295356;28;20033;-71
2023/01/25 07:15:13;;;;;;;26.70;10.77;;;6.20;54.90;;;;;;6295335;28;20050;-71
2023/01/25 07:18:14;;;;;;;22.73;10.15;;;6.30;55.00;;;;;;6296035;28;20431;-69
2023/01/25 07:21:19;;;;;;;27.35;11.27;;;6.20;54.90;;;;;;6296124;28;20035;-68
2023/01/25 07:24:25;;;;;;;26.50;9.20;;;6.30;55.00;;;;;;6295022;28;20029;-69
2023/01/25 07:27:26;;;;;;;27.60;11.38;;;6.20;55.00;;;;;;6294765;28;20408;-69
2023/01/25 07:30:27;;;;;;;28.70;10.60;;;6.20;54.90;;;;;;6294944;28;20056;-70
2023/01/25 07:33:28;;;;;;;27.73;9.55;;;6.20;54.90;;;;;;6296076;28;20025;-69
2023/01/25 07:36:29;;;;;;;20.77;9.05;;;6.20;55.00;;;;;;6295383;28;20020;-70
2023/01/25 07:39:30;;;;;;;22.55;10.00;;;6.30;54.80;;;;;;6294155;28;20064;-69
2023/01/25 07:42:31;;;;;;;26.55;10.38;;;6.30;54.70;;;;;;6295795;28;20040;-68
2023/01/25 07:45:48;;;;;;;15.52;8.57;;;6.30;54.70;;;;;;6294622;28;20054;-69
2023/01/25 07:48:51;;;;;;;27.52;10.18;;;6.40;54.70;;;;;;6293947;28;20028;-68
2023/01/25 07:51:52;;;;;;;22.98;10.55;;;6.40;54.60;;;;;;6295905;28;20063;-69
2023/01/25 07:54:53;;;;;;;27.30;10.02;;;6.40;54.50;;;;;;6296001;28;20035;-70
2023/01/25 07:57:54;;;;;;;24.70;11.15;;;6.40;54.40;;;;;;6310818;28;20035;-69
2023/01/25 08:00:55;;;;;;;29.27;11.52;;;6.40;54.40;;;;;;6319267;28;20028;-68
2023/01/25 08:03:56;;;;;;;21.20;8.68;;;6.50;54.50;;;;;;6315015;28;20021;-69
2023/01/25 08:06:57;;;;;;;31.33;10.35;;;6.50;54.50;;;;;;6299382;28;20383;-72
2023/01/25 08:09:58;;;;;;;20.83;8.57;;;6.50;54.40;;;;;;6300326;28;20047;-69
2023/01/25 08:12:59;;;;;;;32.63;10.88;;;6.50;54.50;;;;;;6305078;28;20020;-69
2023/01/25 08:16:00;;;;;;;25.38;11.00;;;6.40;54.40;;;;;;6301980;28;20035;-69
2023/01/25 08:19:02;;;;;;;23.52;10.75;;;6.40;54.50;;;;;;6298376;28;20028;-71
2023/01/25 08:22:03;;;;;;;31.92;11.02;;;6.50;54.70;;;;;;6298846;28;20032;-69
2023/01/25 08:25:04;;;;;;;40.33;10.98;;;6.50;54.60;;;;;;6299024;28;20048;-69
2023/01/25 08:28:05;;;;;;;25.67;11.25;;;6.50;54.50;;;;;;6299277;28;20029;-69
2023/01/25 08:31:15;;;;;;;21.08;9.50;;;6.60;54.50;;;;;;6299892;28;20035;-69
2023/01/25 08:34:16;;;;;;;28.25;11.05;;;6.60;54.50;;;;;;6300152;28;20106;-67
2023/01/25 08:37:17;;;;;;;36.95;12.80;;;6.60;54.50;;;;;;6299524;28;20383;-69
2023/01/25 08:40:18;;;;;;;26.30;11.88;;;6.60;54.40;;;;;;6299411;28;20055;-67
2023/01/25 08:43:19;;;;;;;22.08;9.07;;;6.60;54.50;;;;;;6299513;28;20520;-69
2023/01/25 08:46:21;;;;;;;24.55;11.05;;;6.60;54.50;;;;;;6298170;28;20358;-69
2023/01/25 08:49:22;;;;;;;29.15;10.68;;;6.60;54.40;;;;;;6298821;28;20020;-71
2023/01/25 08:52:22;;;;;;;25.75;10.45;;;6.60;54.40;;;;;;6300678;28;20465;-67
2023/01/25 08:55:23;;;;;;;26.60;9.63;;;6.60;54.40;;;;;;6323155;28;20479;-71
2023/01/25 08:58:24;;;;;;;25.40;10.02;;;6.70;54.40;;;;;;6323922;28;20043;-71
2023/01/25 09:01:25;;;;;;;24.38;10.05;;;6.70;54.30;;;;;;6324532;28;20032;-70
2023/01/25 09:04:27;;;;;;;24.88;11.38;;;6.70;54.30;;;;;;6315946;28;20021;-69
2023/01/25 09:07:31;;;;;;;28.17;10.82;;;6.80;54.30;;;;;;6297770;28;20027;-70
2023/01/25 09:10:33;;;;;;;29.17;10.63;;;6.90;54.30;;;;;;6299327;28;20063;-69
2023/01/25 09:13:34;;;;;;;21.67;10.10;;;6.90;54.20;;;;;;6281940;28;20072;-69
2023/01/25 09:16:35;;;;;;;26.23;11.27;;;7.00;54.00;;;;;;6298632;28;20108;-68
2023/01/25 09:19:36;;;;;;;29.77;10.13;;;7.10;53.80;;;;;;6299960;28;20412;-69
2023/01/25 09:22:38;;;;;;;25.15;9.95;;;7.10;53.70;;;;;;6300301;28;20528;-69
2023/01/25 09:25:39;;;;;;;39.88;12.07;;;7.10;53.70;;;;;;6299401;28;20039;-68
2023/01/25 09:28:47;;;;;;;20.90;10.18;;;7.00;53.60;;;;;;6298404;28;20024;-69
2023/01/25 09:31:48;;;;;;;34.20;11.98;;;7.00;53.70;;;;;;6281275;28;20037;-71
2023/01/25 09:35:11;;;;;;;36.38;12.63;;;7.00;53.80;;;;;;6297347;28;20087;-69
2023/01/25 09:38:12;;;;;;;32.33;12.32;;;7.00;53.70;;;;;;6297216;28;20388;-69
2023/01/25 09:45:34;;;;;;;23.58;10.48;;;7.00;53.60;;;;;;6298943;28;20114;-69
2023/01/25 09:48:47;;;;;;;30.58;11.70;;;7.00;53.70;;;;;;6298971;28;20023;-71
2023/01/25 09:52:06;;;;;;;28.05;11.85;;;7.10;53.80;;;;;;6322402;28;20061;-70
2023/01/25 09:55:15;;;;;;;25.85;11.07;;;7.10;53.70;;;;;;6322004;28;20036;-71
2023/01/25 09:58:34;;;;;;;25.73;11.93;;;7.20;53.60;;;;;;6322917;28;20100;-69
2023/01/25 10:01:46;;;;;;;31.17;11.38;;;7.30;53.40;;;;;;6322059;28;20028;-69
2023/01/25 10:04:51;;;;;;;26.40;11.50;;;7.40;53.30;;;;;;6293492;28;20395;-70
2023/01/25 10:08:15;;;;;;;51.72;17.80;;;7.40;53.10;;;;;;6295579;28;20024;-67
2023/01/25 10:11:24;;;;;;;40.47;14.45;;;7.50;53.00;;;;;;6297615;28;20029;-69
2023/01/25 10:14:26;;;;;;;43.67;14.70;;;7.50;52.90;;;;;;6297022;28;20499;-72
2023/01/25 10:18:05;;;;;;;31.25;11.48;;;7.50;52.80;;;;;;6296446;28;20102;-71
2023/01/25 10:21:26;;;;;;;19.85;7.70;;;7.50;52.80;;;;;;6290945;28;20049;-69
2023/01/25 10:24:27;;;;;;;28.90;12.57;;;7.50;52.80;;;;;;6297322;28;20048;-69
2023/01/25 10:27:37;;;;;;;31.08;12.82;;;7.60;52.70;;;;;;6297274;28;20056;-70
2023/01/25 10:30:48;;;;;;;27.40;11.85;;;7.50;52.60;;;;;;6297404;28;20028;-69
2023/01/25 10:33:49;;;;;;;28.33;11.05;;;7.50;52.70;;;;;;6295849;28;20436;-69
2023/01/25 10:36:54;;;;;;;31.13;13.93;;;7.50;52.70;;;;;;6297291;28;20474;-70
2023/01/25 10:40:11;;;;;;;24.60;10.55;;;7.50;52.70;;;;;;6296809;28;20032;-68
2023/01/25 10:43:17;;;;;;;30.67;11.98;;;7.60;52.60;;;;;;6297158;28;20032;-70
2023/01/25 10:46:24;;;;;;;33.65;12.27;;;7.60;52.50;;;;;;6308694;28;20028;-70
2023/01/25 10:49:36;;;;;;;26.00;11.07;;;7.60;52.60;;;;;;6321667;28;20032;-72
2023/01/25 10:52:37;;;;;;;37.05;12.00;;;7.60;52.60;;;;;;6322188;28;20065;-68
2023/01/25 10:56:02;;;;;;;28.17;11.40;;;7.70;52.50;;;;;;6321699;28;20081;-70
2023/01/25 10:59:38;;;;;;;24.35;11.68;;;7.70;52.40;;;;;;6321428;28;20056;-69
2023/01/25 11:02:47;;;;;;;28.98;10.30;;;7.80;52.20;;;;;;6294230;28;20040;-69
2023/01/25 11:05:55;;;;;;;23.83;9.98;;;7.70;51.90;;;;;;6278180;28;20039;-68
2023/01/25 11:08:56;;;;;;;;;;;7.70;51.80;;;;;;6294001;28;20112;-68
2023/01/25 11:12:02;;;;;;;25.35;10.48;;;7.80;51.80;;;;;;6277079;28;19942;-70
2023/01/25 11:15:23;;;;;;;21.83;10.07;;;7.90;51.60;;;;;;6293294;28;20048;-70
2023/01/25 11:18:33;;;;;;;47.15;10.65;;;8.10;51.30;;;;;;6293278;28;20047;-71
2023/01/25 11:21:35;;;;;;;28.90;10.90;;;8.20;51.10;;;;;;6277019;28;20040;-70
2023/01/25 11:24:36;;;;;;;22.38;9.63;;;8.30;51.00;;;;;;6277144;28;20393;-69
2023/01/25 11:27:37;;;;;;;25.85;9.13;;;8.50;50.80;;;;;;6293459;28;20380;-69
2023/01/25 11:30:38;;;;;;;39.42;13.88;;;8.60;50.50;;;;;;6293046;28;20044;-70
2023/01/25 11:33:40;;;;;;;21.83;9.25;;;8.90;50.30;;;;;;6276348;28;20036;-69
2023/01/25 11:36:41;;;;;;;34.80;13.77;;;9.00;49.80;;;;;;6310272;28;20386;-69
2023/01/25 11:40:05;;;;;;;31.30;11.38;;;9.10;49.40;;;;;;6302711;28;20043;-70
2023/01/25 11:43:37;;;;;;;21.45;9.13;;;9.20;49.20;;;;;;6325498;28;20436;-72
2023/01/25 11:47:02;;;;;;;28.70;11.40;;;9.40;48.80;;;;;;6311388;28;20363;-71
2023/01/25 11:50:09;;;;;;;36.17;13.63;;;9.60;48.20;;;;;;6325909;28;20367;-71
2023/01/25 11:53:25;;;;;;;39.83;15.40;;;10.00;47.90;;;;;;6325319;28;20035;-71
2023/01/25 11:56:45;;;;;;;22.52;9.48;;;10.40;46.80;;;;;;6326993;28;20067;-71
2023/01/25 12:00:35;;;;;;;42.63;16.15;;;10.80;46.10;;;;;;6308163;28;20043;-68
2023/01/25 12:04:07;;;;;;;27.60;12.03;;;11.00;45.30;;;;;;6279214;28;20055;-70
2023/01/25 12:07:19;;;;;;;32.00;13.40;;;10.80;45.10;;;;;;6273010;28;20260;-69
2023/01/25 12:10:33;;;;;;;24.52;9.52;;;10.70;46.20;;;;;;6272537;28;20040;-70
2023/01/25 12:13:55;;;;;;;34.30;12.38;;;10.70;45.60;;;;;;6272762;28;20041;-69
2023/01/25 12:17:17;;;;;;;31.60;11.75;;;10.60;45.50;;;;;;6241553;28;20511;-68
2023/01/25 12:20:35;;;;;;;32.63;12.48;;;10.60;45.40;;;;;;6272293;28;20039;-70
2023/01/25 12:24:26;;;;;;;31.70;11.07;;;10.50;45.50;;;;;;6272740;28;20033;-70
2023/01/25 12:28:08;;;;;;;25.15;9.38;;;10.30;45.70;;;;;;6198472;28;20038;-69
2023/01/25 12:31:12;;;;;;;34.17;10.50;;;10.20;45.50;;;;;;6079587;29;20044;-70
2023/01/25 12:34:21;;;;;;;23.73;10.35;;;10.10;45.80;;;;;;6079908;29;20430;-69
2023/01/25 12:37:31;;;;;;;26.85;10.52;;;10.00;46.00;;;;;;6079893;29;20115;-70
2023/01/25 12:41:10;;;;;;;18.77;8.20;;;10.00;45.80;;;;;;6079385;29;20129;-68
2023/01/25 12:44:16;;;;;;;21.90;9.52;;;9.90;45.90;;;;;;6017926;29;20513;-69
2023/01/25 12:47:38;;;;;;;27.15;9.77;;;9.80;45.90;;;;;;6033145;29;20160;-71
2023/01/25 12:50:44;;;;;;;23.45;10.18;;;9.80;46.10;;;;;;6033329;29;20073;-69
2023/01/25 12:53:46;;;;;;;33.08;10.10;;;9.80;46.20;;;;;;6017882;29;20077;-72
2023/01/25 12:57:04;;;;;;;21.88;9.43;;;9.70;46.20;;;;;;6050969;29;20160;-69
2023/01/25 13:00:18;;;;;;;24.50;10.25;;;9.70;46.20;;;;;;6111179;29;20056;-70
2023/01/25 13:03:55;;;;;;;31.63;10.55;;;9.60;46.30;;;;;;6112734;29;20031;-69
2023/01/25 13:07:18;;;;;;;21.20;9.32;;;9.60;46.50;;;;;;6218919;28;20148;-69
2023/01/25 13:10:36;;;;;;;21.38;9.02;;;9.50;46.50;;;;;;6229963;28;20033;-71
2023/01/25 13:13:37;;;;;;;18.77;6.97;;;9.50;46.50;;;;;;6246221;28;20072;-69
2023/01/25 13:16:42;;;;;;;24.10;10.02;;;9.50;46.50;;;;;;6245903;28;20385;-71
2023/01/25 13:19:43;;;;;;;27.40;9.30;;;9.50;46.50;;;;;;6250298;28;20025;-70
2023/01/25 13:22:43;;;;;;;23.10;9.38;;;9.60;46.50;;;;;;6297369;28;20040;-69
2023/01/25 13:25:44;;;;;;;19.52;8.38;;;9.50;46.20;;;;;;6297417;28;20468;-69
2023/01/25 13:28:45;;;;;;;18.77;9.00;;;9.50;46.20;;;;;;6298174;28;20017;-72
2023/01/25 13:31:47;;;;;;;16.52;7.50;;;9.50;46.30;;;;;;6298401;28;20447;-70
2023/01/25 13:34:51;;;;;;;20.30;8.98;;;9.50;46.50;;;;;;6309091;28;20060;-69
2023/01/25 13:38:18;;;;;;;33.08;8.93;;;9.40;46.50;;;;;;6321405;28;20024;-69
2023/01/25 13:41:20;;;;;;;22.50;8.45;;;9.50;46.50;;;;;;6323233;28;20035;-70
2023/01/25 13:44:27;;;;;;;23.25;9.63;;;9.50;46.40;;;;;;6323468;28;20108;-69
2023/01/25 13:47:37;;;;;;;19.25;8.43;;;9.60;46.40;;;;;;6323176;28;20473;-70
2023/01/25 13:50:44;;;;;;;25.30;9.90;;;9.60;46.40;;;;;;6321635;28;20036;-70
2023/01/25 13:53:55;;;;;;;23.07;10.63;;;9.60;46.20;;;;;;6321975;28;20093;-73
2023/01/25 13:57:13;;;;;;;22.52;9.00;;;9.60;46.20;;;;;;6321563;28;20038;-71
2023/01/25 14:00:15;;;;;;;20.42;8.70;;;9.60;46.20;;;;;;6321280;28;20485;-69
2023/01/25 14:03:16;;;;;;;21.88;9.10;;;9.50;46.30;;;;;;6304012;28;20115;-68
2023/01/25 14:06:31;;;;;;;20.25;7.75;;;9.60;46.20;;;;;;6299545;28;20095;-72
2023/01/25 14:09:33;;;;;;;24.27;11.23;;;9.60;46.10;;;;;;6296387;28;20028;-71
2023/01/25 14:12:39;;;;;;;26.92;9.60;;;9.50;46.00;;;;;;6297651;28;20731;-70
2023/01/25 14:15:40;;;;;;;24.08;10.55;;;9.40;46.20;;;;;;6297780;28;20036;-69
2023/01/25 14:18:42;;;;;;;22.67;9.38;;;9.30;46.40;;;;;;6296817;28;20048;-70
2023/01/25 14:21:42;;;;;;;22.20;8.57;;;9.30;46.50;;;;;;6296626;28;20024;-70
2023/01/25 14:24:43;;;;;;;22.15;9.25;;;9.30;46.60;;;;;;6295908;28;20052;-70
2023/01/25 14:27:49;;;;;;;28.50;10.82;;;9.40;46.80;;;;;;6295765;28;20067;-70
2023/01/25 14:30:53;;;;;;;20.25;8.95;;;9.30;46.80;;;;;;6305448;28;20111;-69
2023/01/25 14:33:57;;;;;;;21.30;9.68;;;9.30;46.80;;;;;;6304593;28;20039;-69
2023/01/25 14:37:19;;;;;;;22.58;10.55;;;9.40;46.90;;;;;;6321372;28;20068;-68
2023/01/25 14:40:22;;;;;;;21.83;8.95;;;9.40;46.80;;;;;;6321289;28;20031;-70
2023/01/25 14:43:24;;;;;;;25.52;10.27;;;9.40;46.80;;;;;;6322026;28;20047;-70
2023/01/25 14:46:35;;;;;;;27.33;10.27;;;9.40;46.70;;;;;;6321697;28;20479;-69
2023/01/25 14:49:36;;;;;;;27.38;9.95;;;9.40;46.70;;;;;;6319994;28;20476;-72
2023/01/25 14:52:39;;;;;;;24.65;8.93;;;9.30;46.70;;;;;;6320212;28;20039;-70
2023/01/25 14:55:44;;;;;;;26.98;9.02;;;9.30;46.80;;;;;;6321308;28;20031;-69
2023/01/25 14:58:45;;;;;;;20.73;8.52;;;9.30;46.70;;;;;;6320113;28;20062;-68
2023/01/25 15:01:50;;;;;;;27.10;8.63;;;9.20;46.60;;;;;;6320558;28;20032;-69
2023/01/25 15:05:00;;;;;;;23.10;9.35;;;9.20;46.80;;;;;;6309713;28;20160;-71
2023/01/25 15:08:07;;;;;;;26.30;9.43;;;9.10;46.80;;;;;;6295369;28;20028;-70
2023/01/25 15:11:44;;;;;;;22.48;10.00;;;9.10;46.90;;;;;;6295811;28;20036;-70
2023/01/25 15:14:50;;;;;;;27.30;10.38;;;9.10;46.90;;;;;;6297965;28;20032;-71
2023/01/25 15:17:51;;;;;;;30.40;11.15;;;9.20;47.00;;;;;;6279488;28;20045;-71
2023/01/25 15:20:52;;;;;;;21.98;10.07;;;9.20;46.90;;;;;;6295696;28;20039;-69
2023/01/25 15:24:03;;;;;;;21.70;9.40;;;9.20;46.90;;;;;;6296658;28;20029;-69
2023/01/25 15:27:04;;;;;;;27.98;9.27;;;9.20;46.90;;;;;;6303994;28;20153;-69
2023/01/25 15:30:10;;;;;;;26.17;8.93;;;9.10;46.90;;;;;;6320860;28;20415;-69
2023/01/25 15:33:23;;;;;;;24.45;10.07;;;9.20;47.10;;;;;;6320044;28;20101;-70
2023/01/25 15:36:24;;;;;;;24.08;10.00;;;9.10;47.00;;;;;;6319848;28;20433;-70
2023/01/25 15:39:25;;;;;;;28.05;9.88;;;9.10;47.00;;;;;;6320619;28;20107;-68
2023/01/25 15:42:27;;;;;;;21.95;9.63;;;9.10;47.10;;;;;;6321165;28;20106;-69
2023/01/25 15:45:28;;;;;;;25.38;9.68;;;9.10;47.10;;;;;;6320435;28;20028;-68
2023/01/25 15:48:33;;;;;;;19.15;8.18;;;9.00;47.10;;;;;;6319184;28;20541;-69
2023/01/25 15:51:34;;;;;;;24.45;10.00;;;8.90;47.20;;;;;;6319794;28;20028;-71
2023/01/25 15:54:35;;;;;;;24.95;9.18;;;8.70;47.20;;;;;;6320978;28;20107;-69
2023/01/25 15:57:36;;;;;;;23.27;10.07;;;9.00;47.30;;;;;;6319288;28;20048;-68
2023/01/25 16:00:37;;;;;;;30.15;8.82;;;9.00;47.20;;;;;;6321760;28;20079;-68
2023/01/25 16:03:40;;;;;;;22.85;9.75;;;9.00;47.30;;;;;;6325883;28;20111;-70
2023/01/25 16:06:49;;;;;;;19.73;8.88;;;9.00;47.30;;;;;;6297365;28;20027;-68